createdAt,value
2019-06-26T00:00:36.556Z,22.67
2019-06-26T00:04:00.729Z,22.90
2019-06-26T00:07:24.907Z,21.53
2019-06-26T00:10:48.793Z,21.27
2019-06-26T00:14:12.984Z,21.97
2019-06-26T00:17:36.969Z,22.30
2019-06-26T00:21:01.826Z,22.00
2019-06-26T00:24:26.037Z,21.60
2019-06-26T00:27:50.141Z,23.17
2019-06-26T00:31:14.338Z,21.17
2019-06-26T00:34:38.445Z,22.90
2019-06-26T00:38:02.707Z,23.13
2019-06-26T00:41:26.571Z,22.70
2019-06-26T00:44:50.407Z,23.30
2019-06-26T00:48:14.354Z,22.43
2019-06-26T00:51:38.399Z,22.93
2019-06-26T00:55:02.294Z,22.90
2019-06-26T00:58:26.306Z,23.80
2019-06-26T01:01:50.196Z,24.70
2019-06-26T01:05:14.784Z,23.73
2019-06-26T01:08:38.733Z,23.60
2019-06-26T01:12:02.904Z,24.73
2019-06-26T01:15:26.812Z,25.13
2019-06-26T01:18:50.936Z,24.90
2019-06-26T01:22:14.807Z,24.43
2019-06-26T01:25:38.685Z,25.13
2019-06-26T01:29:02.883Z,26.50
2019-06-26T01:32:26.806Z,24.83
2019-06-26T01:35:50.949Z,25.50
2019-06-26T01:39:14.936Z,26.10
2019-06-26T01:42:39.009Z,26.70
2019-06-26T01:46:02.899Z,27.77
2019-06-26T01:49:26.884Z,26.10
2019-06-26T01:52:50.658Z,26.13
2019-06-26T01:56:14.646Z,28.07
2019-06-26T01:59:38.726Z,28.13
2019-06-26T02:03:02.538Z,28.07
2019-06-26T02:06:26.899Z,26.93
2019-06-26T02:09:50.779Z,27.53
2019-06-26T02:13:14.541Z,28.67
2019-06-26T02:16:38.504Z,28.83
2019-06-26T02:20:02.529Z,30.37
2019-06-26T02:23:26.407Z,30.73
2019-06-26T02:26:50.283Z,31.83
2019-06-26T02:30:14.590Z,31.33
2019-06-26T02:33:38.425Z,32.63
2019-06-26T02:37:02.351Z,33.97
2019-06-26T02:40:26.502Z,32.90
2019-06-26T02:43:50.371Z,34.13
2019-06-26T02:47:20.194Z,35.83
2019-06-26T02:50:40.029Z,31.90
2019-06-26T02:54:03.794Z,33.97
2019-06-26T02:57:27.688Z,32.40
2019-06-26T03:00:51.635Z,31.10
2019-06-26T03:04:15.515Z,32.40
2019-06-26T03:07:39.504Z,32.30
2019-06-26T03:11:03.296Z,31.87
2019-06-26T03:14:27.083Z,31.80
2019-06-26T03:17:55.469Z,31.43
2019-06-26T03:21:16.344Z,30.53
2019-06-26T03:24:40.349Z,30.40
2019-06-26T03:28:04.169Z,29.70
2019-06-26T03:31:28.139Z,29.13
2019-06-26T03:34:52.104Z,30.10
2019-06-26T03:38:16.375Z,28.33
2019-06-26T03:41:40.121Z,27.50
2019-06-26T03:45:05.740Z,27.50
2019-06-26T03:48:29.700Z,27.27
2019-06-26T03:51:53.671Z,28.10
2019-06-26T03:55:17.741Z,26.23
2019-06-26T03:58:41.596Z,27.47
2019-06-26T04:02:05.470Z,26.60
2019-06-26T04:05:29.299Z,27.03
2019-06-26T04:08:53.588Z,26.97
2019-06-26T04:12:17.535Z,27.83
2019-06-26T04:15:42.936Z,28.77
2019-06-26T04:19:07.089Z,28.20
2019-06-26T04:22:30.952Z,28.03
2019-06-26T04:25:54.786Z,27.47
2019-06-26T04:29:18.801Z,26.07
2019-06-26T04:32:42.768Z,25.20
2019-06-26T04:36:06.466Z,25.40
2019-06-26T04:39:30.306Z,22.73
2019-06-26T04:42:54.218Z,23.73
2019-06-26T04:46:18.097Z,22.80
2019-06-26T04:49:41.847Z,22.10
2019-06-26T04:53:05.875Z,25.50
2019-06-26T04:56:29.728Z,22.83
2019-06-26T04:59:53.849Z,22.83
2019-06-26T05:03:17.694Z,23.70
2019-06-26T05:06:41.608Z,22.63
2019-06-26T05:10:08.137Z,23.43
2019-06-26T05:13:31.996Z,23.67
2019-06-26T05:16:55.796Z,24.37
2019-06-26T05:20:19.801Z,25.10
2019-06-26T05:23:43.554Z,25.65
2019-06-26T05:27:07.306Z,24.12
2019-06-26T05:30:31.141Z,26.35
2019-06-26T05:33:54.977Z,27.55
2019-06-26T05:37:18.922Z,27.20
2019-06-26T05:40:42.645Z,26.05
2019-06-26T05:44:06.620Z,25.20
2019-06-26T05:47:30.536Z,26.00
2019-06-26T05:50:54.268Z,25.50
2019-06-26T05:54:18.416Z,24.00
2019-06-26T05:57:42.423Z,24.67
2019-06-26T06:01:06.374Z,24.17
2019-06-26T06:04:30.371Z,23.87
2019-06-26T06:07:54.464Z,23.23
2019-06-26T06:11:18.324Z,23.20
2019-06-26T06:14:42.188Z,22.03
2019-06-26T06:18:06.055Z,21.43
2019-06-26T06:21:29.867Z,19.98
2019-06-26T06:24:53.862Z,20.97
2019-06-26T06:28:17.637Z,20.48
2019-06-26T06:31:41.488Z,19.23
2019-06-26T06:35:07.190Z,17.98
2019-06-26T06:38:31.019Z,18.92
2019-06-26T06:41:55.097Z,19.52
2019-06-26T06:45:20.452Z,18.80
2019-06-26T06:48:44.243Z,18.48
2019-06-26T06:52:08.086Z,17.95
2019-06-26T06:55:32.158Z,18.98
2019-06-26T06:58:56.731Z,18.23
2019-06-26T07:02:20.640Z,18.48
2019-06-26T07:05:44.548Z,17.80
2019-06-26T07:09:08.470Z,19.85
2019-06-26T07:12:32.258Z,18.23
2019-06-26T07:15:56.230Z,17.82
2019-06-26T07:19:20.160Z,17.75
2019-06-26T07:22:43.926Z,17.23
2019-06-26T07:26:07.761Z,17.52
2019-06-26T07:29:31.702Z,16.30
2019-06-26T07:32:55.610Z,17.20
2019-06-26T07:36:19.448Z,16.83
2019-06-26T07:39:43.453Z,15.63
2019-06-26T07:43:07.322Z,17.12
2019-06-26T07:46:31.342Z,15.78
2019-06-26T07:49:55.268Z,14.70
2019-06-26T07:53:19.325Z,14.57
2019-06-26T07:56:44.744Z,15.37
2019-06-26T08:00:08.881Z,14.27
2019-06-26T08:03:33.224Z,14.53
2019-06-26T08:06:57.566Z,14.53
2019-06-26T08:10:21.515Z,14.60
2019-06-26T08:13:45.287Z,13.33
2019-06-26T08:17:09.112Z,14.23
2019-06-26T08:20:41.185Z,14.40
2019-06-26T08:24:01.741Z,14.40
2019-06-26T08:27:25.809Z,14.80
2019-06-26T08:30:50.550Z,14.93
2019-06-26T08:34:14.446Z,15.13
2019-06-26T08:37:38.498Z,14.23
2019-06-26T08:41:02.421Z,15.23
2019-06-26T08:44:26.491Z,14.27
2019-06-26T08:47:50.356Z,13.50
2019-06-26T08:51:14.232Z,13.70
2019-06-26T08:54:38.116Z,14.10
2019-06-26T08:58:02.092Z,13.70
2019-06-26T09:01:25.983Z,13.83
2019-06-26T09:04:49.741Z,13.73
2019-06-26T09:08:13.718Z,14.50
2019-06-26T09:11:37.607Z,13.23
2019-06-26T09:15:01.507Z,13.57
2019-06-26T09:18:35.445Z,13.73
2019-06-26T09:21:50.823Z,14.80
2019-06-26T09:25:21.983Z,15.33
2019-06-26T09:28:40.619Z,14.70
2019-06-26T09:32:04.487Z,14.33
2019-06-26T09:35:28.248Z,14.70
2019-06-26T09:38:51.962Z,15.40
2019-06-26T09:42:19.743Z,14.53
2019-06-26T09:45:42.813Z,15.47
2019-06-26T09:49:06.675Z,15.97
2019-06-26T09:52:30.549Z,14.67
2019-06-26T09:55:54.304Z,15.27
2019-06-26T09:59:18.417Z,13.23
2019-06-26T10:02:42.347Z,12.83
2019-06-26T10:06:06.277Z,12.87
2019-06-26T10:09:30.054Z,13.43
2019-06-26T10:12:54.149Z,12.77
2019-06-26T10:16:18.050Z,12.87
2019-06-26T10:19:41.831Z,14.00
2019-06-26T10:23:05.567Z,13.03
2019-06-26T10:26:32.365Z,12.50
2019-06-26T10:29:54.917Z,12.67
2019-06-26T10:33:18.757Z,12.17
2019-06-26T10:36:42.509Z,11.43
2019-06-26T10:40:06.797Z,12.23
2019-06-26T10:43:31.042Z,11.30
2019-06-26T10:46:54.897Z,10.77
2019-06-26T10:50:18.918Z,11.17
2019-06-26T10:53:43.414Z,11.63
2019-06-26T10:57:07.404Z,11.30
2019-06-26T11:00:31.793Z,10.77
2019-06-26T11:03:55.774Z,10.33
2019-06-26T11:07:19.566Z,10.23
2019-06-26T11:10:43.252Z,9.53
2019-06-26T11:14:07.111Z,8.40
2019-06-26T11:17:30.967Z,8.47
2019-06-26T11:20:54.803Z,8.73
2019-06-26T11:24:18.950Z,8.80
2019-06-26T11:27:43.242Z,7.53
2019-06-26T11:31:07.133Z,7.57
2019-06-26T11:34:31.195Z,8.07
2019-06-26T11:37:55.877Z,8.83
2019-06-26T11:41:19.801Z,8.83
2019-06-26T11:44:43.641Z,9.43
2019-06-26T11:48:07.561Z,9.53
2019-06-26T11:51:31.431Z,8.93
2019-06-26T11:55:02.634Z,9.00
2019-06-26T11:58:20.784Z,8.17
2019-06-26T12:01:44.721Z,8.67
2019-06-26T12:05:09.802Z,6.87
2019-06-26T12:08:33.673Z,7.57
2019-06-26T12:11:57.395Z,8.43
2019-06-26T12:15:23.616Z,9.63
2019-06-26T12:18:47.609Z,9.77
2019-06-26T12:22:12.414Z,7.70
2019-06-26T12:25:36.320Z,6.73
2019-06-26T12:29:00.239Z,6.70
2019-06-26T12:32:24.040Z,6.93
2019-06-26T12:35:48.112Z,7.57
2019-06-26T12:39:11.937Z,7.03
2019-06-26T12:42:35.912Z,7.33
2019-06-26T12:45:59.744Z,7.40
2019-06-26T12:49:23.665Z,9.00
2019-06-26T12:52:47.544Z,7.03
2019-06-26T12:56:11.328Z,8.40
2019-06-26T12:59:35.159Z,9.73
2019-06-26T13:02:59.009Z,8.70
2019-06-26T13:06:22.924Z,7.93
2019-06-26T13:09:46.778Z,8.20
2019-06-26T13:13:10.796Z,8.57
2019-06-26T13:16:34.965Z,8.27
2019-06-26T13:19:58.756Z,8.77
2019-06-26T13:23:22.986Z,8.20
2019-06-26T13:26:46.867Z,9.10
2019-06-26T13:30:12.288Z,7.13
2019-06-26T13:33:36.367Z,8.47
2019-06-26T13:37:00.111Z,7.67
2019-06-26T13:40:23.925Z,9.03
2019-06-26T13:43:47.872Z,8.67
2019-06-26T13:47:11.776Z,9.13
2019-06-26T13:50:35.559Z,9.20
2019-06-26T13:53:59.440Z,8.63
2019-06-26T13:57:23.185Z,8.77
2019-06-26T14:00:47.233Z,8.23
2019-06-26T14:04:11.089Z,7.57
2019-06-26T14:07:34.937Z,8.50
2019-06-26T14:10:58.802Z,7.87
2019-06-26T14:14:37.673Z,7.90
2019-06-26T14:17:48.363Z,7.53
2019-06-26T14:21:24.968Z,7.60
2019-06-26T14:24:37.838Z,8.67
2019-06-26T14:28:01.748Z,7.30
2019-06-26T14:31:25.525Z,8.57
2019-06-26T14:34:49.359Z,8.17
2019-06-26T14:38:13.183Z,7.50
2019-06-26T14:41:39.249Z,8.37
2019-06-26T14:45:02.681Z,9.00
2019-06-26T14:48:26.535Z,8.50
2019-06-26T14:51:50.435Z,9.00
2019-06-26T14:55:15.545Z,8.30
2019-06-26T14:58:39.849Z,8.50
2019-06-26T15:02:03.696Z,8.13
2019-06-26T15:05:27.615Z,7.13
2019-06-26T15:08:51.494Z,7.53
2019-06-26T15:12:15.249Z,7.77
2019-06-26T15:15:39.241Z,7.67
2019-06-26T15:19:02.935Z,7.83
2019-06-26T15:22:26.880Z,8.20
2019-06-26T15:25:50.873Z,7.87
2019-06-26T15:29:14.844Z,8.50
2019-06-26T15:32:38.764Z,7.17
2019-06-26T15:36:02.851Z,6.80
2019-06-26T15:39:26.708Z,7.10
2019-06-26T15:42:50.594Z,6.43
2019-06-26T15:46:14.566Z,6.90
2019-06-26T15:49:38.493Z,6.80
2019-06-26T15:53:03.091Z,7.53
2019-06-26T15:56:27.030Z,7.17
2019-06-26T15:59:50.862Z,7.47
2019-06-26T16:03:23.325Z,8.43
2019-06-26T16:06:47.373Z,7.53
2019-06-26T16:10:11.435Z,7.83
2019-06-26T16:13:35.450Z,7.50
2019-06-26T16:17:00.855Z,8.37
2019-06-26T16:20:24.769Z,7.60
2019-06-26T16:23:49.385Z,7.70
2019-06-26T16:27:13.184Z,7.30
2019-06-26T16:30:36.932Z,7.57
2019-06-26T16:34:00.873Z,7.73
2019-06-26T16:37:24.686Z,7.67
2019-06-26T16:40:48.954Z,7.07
2019-06-26T16:44:13.038Z,8.00
2019-06-26T16:47:37.520Z,7.70
2019-06-26T16:51:01.311Z,7.50
2019-06-26T16:54:25.233Z,7.47
2019-06-26T16:57:49.105Z,7.57
2019-06-26T17:01:12.851Z,8.30
2019-06-26T17:04:36.767Z,7.23
2019-06-26T17:08:00.559Z,8.07
2019-06-26T17:11:24.532Z,7.40
2019-06-26T17:14:48.407Z,7.60
2019-06-26T17:18:12.155Z,7.20
2019-06-26T17:21:36.289Z,7.67
2019-06-26T17:25:00.168Z,7.37
2019-06-26T17:28:24.001Z,7.90
2019-06-26T17:31:47.860Z,7.60
2019-06-26T17:35:13.014Z,7.10
2019-06-26T17:38:37.207Z,8.40
2019-06-26T17:42:01.943Z,7.80
2019-06-26T17:45:26.953Z,7.90
2019-06-26T17:48:51.236Z,7.73
2019-06-26T17:52:15.048Z,8.03
2019-06-26T17:55:59.781Z,8.43
2019-06-26T17:59:23.746Z,7.93
2019-06-26T18:02:47.526Z,8.57
2019-06-26T18:06:13.164Z,8.23
2019-06-26T18:09:38.093Z,8.40
2019-06-26T18:13:02.685Z,8.33
2019-06-26T18:16:26.623Z,8.63
2019-06-26T18:19:53.817Z,8.87
2019-06-26T18:23:16.931Z,8.65
2019-06-26T18:26:41.542Z,9.05
2019-06-26T18:30:08.645Z,8.73
2019-06-26T18:33:32.638Z,8.55
2019-06-26T18:36:56.449Z,8.90
2019-06-26T18:40:25.593Z,8.77
2019-06-26T18:43:51.121Z,9.40
2019-06-26T18:47:15.090Z,8.43
2019-06-26T18:50:39.474Z,8.37
2019-06-26T18:54:05.369Z,9.53
2019-06-26T18:57:29.210Z,9.40
2019-06-26T19:00:53.048Z,9.30
2019-06-26T19:04:16.845Z,9.30
2019-06-26T19:07:40.803Z,9.63
2019-06-26T19:11:04.571Z,10.00
2019-06-26T19:14:28.379Z,9.60
2019-06-26T19:17:52.365Z,9.33
2019-06-26T19:21:24.106Z,10.47
2019-06-26T19:24:49.576Z,10.47
2019-06-26T19:28:13.953Z,10.07
2019-06-26T19:31:38.039Z,9.67
2019-06-26T19:35:08.034Z,10.43
2019-06-26T19:38:27.332Z,11.40
2019-06-26T19:41:51.274Z,10.97
2019-06-26T19:45:15.731Z,10.72
2019-06-26T19:48:39.680Z,11.03
2019-06-26T19:52:03.894Z,11.30
2019-06-26T19:55:27.980Z,11.35
2019-06-26T19:58:52.173Z,11.18
2019-06-26T20:02:23.366Z,11.20
2019-06-26T20:05:45.865Z,11.50
2019-06-26T20:09:18.233Z,11.28
2019-06-26T20:12:49.678Z,11.55
2019-06-26T20:16:13.537Z,11.55
2019-06-26T20:19:41.716Z,11.65
2019-06-26T20:23:09.772Z,11.38
2019-06-26T20:26:33.198Z,11.90
2019-06-26T20:29:57.062Z,11.50
2019-06-26T20:33:21.011Z,11.68
2019-06-26T20:36:44.819Z,11.78
2019-06-26T20:40:09.096Z,12.00
2019-06-26T20:43:37.879Z,12.25
2019-06-26T20:47:01.730Z,11.65
2019-06-26T20:50:25.531Z,12.07
2019-06-26T20:53:49.562Z,12.20
2019-06-26T20:57:13.531Z,11.93
2019-06-26T21:00:39.091Z,11.90
2019-06-26T21:07:48.456Z,12.45
2019-06-26T21:11:15.607Z,12.37
2019-06-26T21:14:37.734Z,12.90
2019-06-26T21:18:01.486Z,13.27
2019-06-26T21:21:25.319Z,12.03
2019-06-26T21:24:54.389Z,12.00
2019-06-26T21:28:18.280Z,12.33
2019-06-26T21:31:45.919Z,12.70
2019-06-26T21:35:10.111Z,12.60
2019-06-26T21:38:33.874Z,11.63
2019-06-26T21:41:57.822Z,13.37
2019-06-26T21:45:21.677Z,12.50
2019-06-26T21:48:45.500Z,13.63
2019-06-26T21:52:10.368Z,12.30
2019-06-26T21:55:35.093Z,13.17
2019-06-26T21:58:59.026Z,13.97
2019-06-26T22:02:22.777Z,14.07
2019-06-26T22:05:54.516Z,13.10
2019-06-26T22:09:18.594Z,13.87
2019-06-26T22:12:42.881Z,14.30
2019-06-26T22:16:10.432Z,13.37
2019-06-26T22:19:35.761Z,13.13
2019-06-26T22:22:59.849Z,14.23
2019-06-26T22:26:23.952Z,14.83
2019-06-26T22:29:47.923Z,15.57
2019-06-26T22:33:18.273Z,14.97
2019-06-26T22:36:51.328Z,14.70
2019-06-26T22:40:16.643Z,14.90
2019-06-26T22:43:41.997Z,14.60
2019-06-26T22:47:06.695Z,14.23
2019-06-26T22:50:30.516Z,13.77
2019-06-26T22:53:58.755Z,14.53
2019-06-26T22:57:24.058Z,14.07
2019-06-26T23:00:48.059Z,14.30
2019-06-26T23:04:11.837Z,13.80
2019-06-26T23:07:35.842Z,14.00
2019-06-26T23:10:59.686Z,14.73
2019-06-26T23:14:23.670Z,14.57
2019-06-26T23:17:48.677Z,14.60
2019-06-26T23:21:14.208Z,15.23
2019-06-26T23:24:40.042Z,14.70
2019-06-26T23:28:10.809Z,14.93
2019-06-26T23:31:34.885Z,14.50
2019-06-26T23:34:58.855Z,14.37
2019-06-26T23:38:36.260Z,14.20
2019-06-26T23:41:57.518Z,13.93
2019-06-26T23:45:21.541Z,15.10
2019-06-26T23:48:45.888Z,15.13
2019-06-26T23:52:09.726Z,14.10
2019-06-26T23:55:33.896Z,14.80
2019-06-26T23:58:59.313Z,14.20
